createdAt,value
2018-11-10T00:00:19.330Z,26.83
2018-11-10T00:02:49.430Z,27.63
2018-11-10T00:05:19.445Z,30.23
2018-11-10T00:07:48.529Z,26.93
2018-11-10T00:10:18.401Z,28.70
2018-11-10T00:12:48.546Z,27.37
2018-11-10T00:15:17.628Z,27.03
2018-11-10T00:17:46.595Z,29.90
2018-11-10T00:20:15.644Z,28.90
2018-11-10T00:22:45.268Z,28.70
2018-11-10T00:25:14.896Z,29.03
2018-11-10T00:27:45.152Z,31.12
2018-11-10T00:30:15.325Z,32.20
2018-11-10T00:32:44.954Z,33.00
2018-11-10T00:35:14.351Z,26.57
2018-11-10T00:37:43.306Z,30.30
2018-11-10T00:40:13.702Z,29.57
2018-11-10T00:42:42.944Z,28.80
2018-11-10T00:45:11.879Z,30.70
2018-11-10T00:47:40.655Z,27.30
2018-11-10T00:50:10.094Z,32.23
2018-11-10T00:52:39.458Z,30.40
2018-11-10T00:55:08.628Z,29.10
2018-11-10T00:57:37.406Z,31.20
2018-11-10T01:00:06.550Z,29.27
2018-11-10T01:02:35.096Z,28.53
2018-11-10T01:05:03.959Z,32.00
2018-11-10T01:07:32.583Z,31.70
2018-11-10T01:10:01.216Z,34.20
2018-11-10T01:12:29.842Z,27.00
2018-11-10T01:14:58.478Z,33.03
2018-11-10T01:17:27.027Z,28.77
2018-11-10T01:19:56.490Z,29.07
2018-11-10T01:22:25.281Z,28.60
2018-11-10T01:24:54.040Z,26.70
2018-11-10T01:27:22.473Z,27.17
2018-11-10T01:29:50.872Z,24.70
2018-11-10T01:32:19.595Z,25.92
2018-11-10T01:34:48.529Z,27.07
2018-11-10T01:37:17.313Z,27.43
2018-11-10T01:39:45.961Z,26.20
2018-11-10T01:42:14.364Z,31.80
2018-11-10T01:44:43.027Z,27.33
2018-11-10T01:47:11.885Z,25.77
2018-11-10T01:49:40.685Z,29.73
2018-11-10T01:52:09.631Z,27.73
2018-11-10T01:54:38.547Z,24.33
2018-11-10T01:57:07.130Z,29.10
2018-11-10T01:59:35.577Z,29.83
2018-11-10T02:02:04.428Z,36.43
2018-11-10T02:04:33.005Z,30.68
2018-11-10T02:07:01.928Z,26.33
2018-11-10T02:09:30.779Z,28.80
2018-11-10T02:11:59.294Z,28.37
2018-11-10T02:14:27.859Z,29.18
2018-11-10T02:16:56.331Z,29.27
2018-11-10T02:19:25.222Z,30.53
2018-11-10T02:21:54.114Z,27.37
2018-11-10T02:24:22.704Z,26.20
2018-11-10T02:26:51.482Z,30.80
2018-11-10T02:29:20.176Z,30.00
2018-11-10T02:31:48.963Z,30.00
2018-11-10T02:34:17.618Z,26.03
2018-11-10T02:36:46.284Z,26.80
2018-11-10T02:39:15.006Z,29.13
2018-11-10T02:41:43.694Z,30.43
2018-11-10T02:44:12.397Z,27.93
2018-11-10T02:46:41.564Z,28.73
2018-11-10T02:49:10.169Z,26.70
2018-11-10T02:51:38.998Z,25.50
2018-11-10T02:54:07.530Z,27.13
2018-11-10T02:56:35.974Z,29.63
2018-11-10T02:59:04.762Z,23.90
2018-11-10T03:01:33.326Z,27.67
2018-11-10T03:04:02.010Z,25.10
2018-11-10T03:06:30.441Z,29.67
2018-11-10T03:08:58.983Z,26.17
2018-11-10T03:11:27.714Z,27.40
2018-11-10T03:13:56.230Z,24.97
2018-11-10T03:16:25.222Z,26.10
2018-11-10T03:18:54.707Z,26.87
2018-11-10T03:21:23.627Z,26.10
2018-11-10T03:23:52.047Z,23.37
2018-11-10T03:26:20.566Z,25.20
2018-11-10T03:28:49.002Z,23.70
2018-11-10T03:31:17.528Z,26.93
2018-11-10T03:33:46.018Z,31.07
2018-11-10T03:36:14.412Z,26.57
2018-11-10T03:38:42.952Z,27.43
2018-11-10T03:41:11.460Z,29.80
2018-11-10T03:43:39.996Z,30.47
2018-11-10T03:46:08.860Z,29.50
2018-11-10T03:48:37.804Z,29.67
2018-11-10T03:51:06.218Z,27.50
2018-11-10T03:53:34.984Z,29.67
2018-11-10T03:56:03.542Z,29.53
2018-11-10T03:58:31.998Z,31.77
2018-11-10T04:01:00.631Z,32.23
2018-11-10T04:03:29.260Z,28.60
2018-11-10T04:05:57.868Z,31.20
2018-11-10T04:08:26.579Z,28.17
2018-11-10T04:10:55.065Z,26.87
2018-11-10T04:13:23.969Z,31.67
2018-11-10T04:15:52.652Z,28.53
2018-11-10T04:18:21.319Z,27.77
2018-11-10T04:20:50.110Z,26.67
2018-11-10T04:23:18.705Z,28.00
2018-11-10T04:25:47.623Z,35.87
2018-11-10T04:28:16.061Z,29.87
2018-11-10T04:30:44.672Z,29.10
2018-11-10T04:33:13.152Z,32.90
2018-11-10T04:35:41.670Z,31.95
2018-11-10T04:38:10.241Z,31.33
2018-11-10T04:40:39.062Z,29.30
2018-11-10T04:43:07.946Z,32.67
2018-11-10T04:45:37.867Z,28.57
2018-11-10T04:48:06.860Z,31.17
2018-11-10T04:50:35.482Z,34.40
2018-11-10T04:53:04.150Z,37.93
2018-11-10T04:55:32.688Z,33.10
2018-11-10T04:58:01.489Z,33.85
2018-11-10T05:00:29.979Z,39.90
2018-11-10T05:02:58.657Z,40.43
2018-11-10T05:05:27.218Z,43.07
2018-11-10T05:07:55.892Z,39.83
2018-11-10T05:10:24.779Z,42.60
2018-11-10T05:12:53.684Z,45.50
2018-11-10T05:15:22.647Z,42.03
2018-11-10T05:17:51.214Z,46.33
2018-11-10T05:20:19.825Z,52.30
2018-11-10T05:22:48.436Z,51.17
2018-11-10T05:25:16.983Z,47.50
2018-11-10T05:27:45.597Z,42.50
2018-11-10T05:30:14.356Z,49.60
2018-11-10T05:32:43.141Z,49.87
2018-11-10T05:35:12.766Z,45.47
2018-11-10T05:37:41.446Z,46.87
2018-11-10T05:40:11.185Z,43.87
2018-11-10T05:42:40.383Z,43.50
2018-11-10T05:45:09.394Z,47.03
2018-11-10T05:47:38.459Z,41.80
2018-11-10T05:50:08.238Z,43.93
2018-11-10T05:52:36.985Z,41.67
2018-11-10T05:55:06.527Z,39.23
2018-11-10T05:57:35.185Z,40.43
2018-11-10T06:00:04.636Z,39.50
2018-11-10T06:02:33.604Z,39.20
2018-11-10T06:05:02.510Z,39.00
2018-11-10T06:07:31.311Z,43.60
2018-11-10T06:09:59.994Z,37.80
2018-11-10T06:12:28.696Z,43.45
2018-11-10T06:14:57.364Z,43.53
2018-11-10T06:17:26.107Z,39.80
2018-11-10T06:19:55.020Z,44.70
2018-11-10T06:22:24.111Z,43.67
2018-11-10T06:59:27.842Z,40.17
2018-11-10T07:01:57.067Z,38.90
2018-11-10T07:04:26.333Z,40.43
2018-11-10T07:06:57.659Z,37.43
2018-11-10T07:09:27.642Z,42.60
2018-11-10T07:28:24.649Z,45.35
2018-11-10T07:30:54.164Z,41.47
2018-11-10T07:33:23.175Z,45.90
2018-11-10T07:35:52.346Z,45.47
2018-11-10T07:38:21.822Z,44.70
2018-11-10T07:40:50.818Z,52.00
2018-11-10T07:43:19.762Z,44.20
2018-11-10T07:45:48.715Z,46.77
2018-11-10T07:48:17.995Z,51.73
2018-11-10T07:50:47.306Z,44.60
2018-11-10T07:53:16.329Z,43.08
2018-11-10T07:55:45.189Z,50.13
2018-11-10T07:58:13.969Z,45.27
2018-11-10T08:00:42.924Z,49.60
2018-11-10T08:03:12.563Z,45.77
2018-11-10T08:05:41.542Z,46.83
2018-11-10T08:08:10.342Z,46.50
2018-11-10T08:10:39.565Z,47.13
2018-11-10T08:13:09.022Z,49.03
2018-11-10T08:15:38.575Z,49.77
2018-11-10T08:18:07.687Z,48.00
2018-11-10T08:20:38.073Z,49.50
2018-11-10T08:23:07.384Z,51.50
2018-11-10T08:25:35.973Z,46.85
2018-11-10T08:28:04.658Z,46.70
2018-11-10T08:30:33.539Z,53.23
2018-11-10T08:33:02.371Z,44.83
2018-11-10T08:35:31.279Z,50.10
2018-11-10T08:38:00.156Z,47.63
2018-11-10T08:40:30.501Z,54.50
2018-11-10T08:42:59.444Z,52.40
2018-11-10T08:45:28.385Z,44.23
2018-11-10T08:47:56.967Z,54.20
2018-11-10T08:50:25.922Z,46.87
2018-11-10T08:52:55.340Z,47.20
2018-11-10T08:55:24.299Z,48.27
2018-11-10T08:57:53.355Z,43.90
2018-11-10T09:00:22.068Z,44.53
2018-11-10T09:02:50.739Z,45.63
2018-11-10T09:05:19.568Z,42.07
2018-11-10T09:07:48.460Z,39.78
2018-11-10T09:10:17.594Z,43.80
2018-11-10T09:12:46.241Z,43.90
2018-11-10T09:15:15.866Z,39.17
2018-11-10T09:17:44.989Z,43.90
2018-11-10T09:20:14.992Z,46.17
2018-11-10T09:22:44.491Z,43.27
2018-11-10T09:25:14.959Z,46.60
2018-11-10T09:27:44.061Z,41.30
2018-11-10T09:30:14.420Z,45.07
2018-11-10T09:32:43.771Z,41.93
2018-11-10T09:35:14.145Z,42.23
2018-11-10T09:37:42.966Z,40.43
2018-11-10T09:40:14.349Z,43.10
2018-11-10T09:42:43.536Z,42.43
2018-11-10T09:45:13.701Z,42.10
2018-11-10T09:47:42.328Z,48.00
2018-11-10T09:50:21.106Z,47.17
2018-11-10T09:52:50.347Z,42.30
2018-11-10T09:55:19.538Z,43.70
2018-11-10T09:57:48.267Z,46.03
2018-11-10T10:00:19.488Z,46.27
2018-11-10T10:02:48.551Z,42.93
2018-11-10T10:05:17.386Z,44.17
2018-11-10T10:07:46.184Z,41.87
2018-11-10T10:10:38.078Z,43.10
2018-11-10T10:13:17.315Z,39.80
2018-11-10T10:15:58.721Z,38.03
2018-11-10T10:21:36.910Z,42.73
2018-11-10T10:24:08.399Z,34.83
2018-11-10T10:30:25.051Z,34.57
2018-11-10T10:33:06.390Z,31.17
2018-11-10T10:41:40.013Z,35.27
2018-11-10T10:45:47.840Z,39.60
2018-11-10T10:48:52.153Z,32.70
2018-11-10T11:36:32.356Z,26.10
2018-11-10T11:39:02.484Z,23.83
2018-11-10T11:41:38.217Z,25.57
2018-11-10T11:44:08.682Z,26.90
2018-11-10T11:46:39.555Z,23.67
2018-11-10T11:49:12.092Z,22.20
2018-11-10T11:51:41.610Z,23.03
2018-11-10T11:59:03.623Z,26.07
2018-11-10T12:01:43.608Z,23.57
2018-11-10T12:04:20.191Z,25.60
2018-11-10T12:21:46.608Z,28.53
2018-11-10T12:24:16.293Z,26.40
2018-11-10T12:26:45.613Z,29.63
2018-11-10T12:29:17.911Z,27.37
2018-11-10T12:31:47.041Z,24.20
2018-11-10T12:34:16.568Z,26.10
2018-11-10T12:36:45.602Z,27.80
2018-11-10T12:39:15.383Z,25.03
2018-11-10T12:41:44.815Z,25.30
2018-11-10T12:44:19.031Z,24.20
2018-11-10T12:46:48.599Z,21.30
2018-11-10T12:49:18.049Z,22.37
2018-11-10T12:51:46.981Z,22.67
2018-11-10T12:54:19.096Z,20.20
2018-11-10T12:56:48.946Z,24.75
2018-11-10T12:59:18.747Z,22.43
2018-11-10T13:01:48.083Z,20.47
2018-11-10T13:04:18.511Z,26.23
2018-11-10T13:06:56.182Z,18.80
2018-11-10T13:09:29.078Z,18.50
2018-11-10T13:14:45.028Z,20.73
2018-11-10T13:17:19.668Z,21.60
2018-11-10T13:20:07.500Z,21.10
2018-11-10T13:22:37.889Z,22.30
2018-11-10T13:25:09.663Z,20.17
2018-11-10T13:27:41.719Z,18.20
2018-11-10T13:30:17.599Z,19.52
2018-11-10T13:32:56.292Z,20.00
2018-11-10T13:35:37.938Z,20.13
2018-11-10T13:38:34.698Z,21.42
2018-11-10T13:41:09.904Z,20.43
2018-11-10T13:46:34.503Z,23.53
2018-11-10T13:49:11.719Z,20.50
2018-11-10T13:51:43.738Z,19.00
2018-11-10T14:07:02.242Z,31.73
2018-11-10T16:02:18.137Z,26.60
2018-11-10T16:04:46.836Z,30.17
2018-11-10T16:07:15.645Z,37.40
2018-11-10T16:12:53.552Z,25.67
2018-11-10T16:15:25.283Z,24.17
2018-11-10T16:17:56.042Z,31.10
2018-11-10T16:20:31.102Z,30.47
2018-11-10T16:23:00.341Z,29.37
2018-11-10T16:25:29.562Z,27.90
2018-11-10T16:27:58.652Z,24.53
2018-11-10T16:30:27.956Z,29.13
2018-11-10T16:32:56.942Z,23.00
2018-11-10T16:35:26.455Z,23.87
2018-11-10T16:37:56.070Z,24.53
2018-11-10T16:40:25.035Z,23.50
2018-11-10T16:42:54.232Z,24.40
2018-11-10T16:45:23.425Z,26.90
2018-11-10T16:47:54.449Z,26.60
2018-11-10T16:50:23.574Z,30.87
2018-11-10T16:52:52.671Z,28.27
2018-11-10T16:55:21.427Z,28.63
2018-11-10T16:57:50.010Z,26.90
2018-11-10T17:00:19.755Z,28.00
2018-11-10T17:02:48.393Z,25.40
2018-11-10T17:05:16.997Z,29.63
2018-11-10T17:07:46.134Z,25.63
2018-11-10T17:10:16.771Z,27.97
2018-11-10T17:12:45.551Z,26.70
2018-11-10T17:15:14.232Z,28.73
2018-11-10T17:17:43.121Z,35.50
2018-11-10T17:20:16.140Z,34.00
2018-11-10T17:22:45.829Z,32.57
2018-11-10T17:25:15.126Z,31.60
2018-11-10T17:27:44.293Z,29.13
2018-11-10T17:30:15.096Z,31.40
2018-11-10T17:32:44.009Z,41.43
2018-11-10T17:35:13.600Z,32.80
2018-11-10T17:37:42.390Z,42.57
2018-11-10T17:40:11.861Z,27.70
2018-11-10T17:42:40.837Z,22.60
2018-11-10T17:45:12.051Z,28.23
2018-11-10T17:47:41.092Z,23.37
2018-11-10T17:50:11.061Z,27.30
2018-11-10T17:52:40.436Z,28.73
2018-11-10T17:55:10.593Z,28.50
2018-11-10T17:57:39.760Z,29.60
2018-11-10T18:00:08.592Z,28.87
2018-11-10T18:02:37.447Z,31.50
2018-11-10T18:05:20.608Z,29.60
2018-11-10T18:07:49.471Z,31.60
2018-11-10T18:10:18.900Z,29.50
2018-11-10T18:12:47.573Z,26.75
2018-11-10T18:15:16.506Z,26.13
2018-11-10T18:17:46.419Z,27.63
2018-11-10T18:20:16.476Z,26.62
2018-11-10T18:22:45.755Z,29.67
2018-11-10T18:25:14.512Z,27.30
2018-11-10T18:27:43.311Z,26.67
2018-11-10T18:30:13.715Z,29.80
2018-11-10T18:32:42.731Z,29.33
2018-11-10T18:35:12.809Z,22.93
2018-11-10T18:37:42.082Z,18.87
2018-11-10T18:40:10.951Z,20.07
2018-11-10T18:42:39.588Z,22.93
2018-11-10T18:45:09.645Z,23.40
2018-11-10T18:47:38.912Z,23.07
2018-11-10T18:50:09.576Z,28.95
2018-11-10T18:52:38.652Z,28.03
2018-11-10T18:55:07.315Z,37.23
2018-11-10T18:57:36.041Z,29.40
2018-11-10T19:00:05.454Z,29.73
2018-11-10T19:02:34.334Z,30.85
2018-11-10T19:05:04.313Z,34.78
2018-11-10T19:07:32.952Z,37.50
2018-11-10T19:10:01.733Z,37.40
2018-11-10T19:12:30.301Z,36.80
2018-11-10T19:14:58.914Z,36.10
2018-11-10T19:17:27.580Z,35.87
2018-11-10T19:19:56.110Z,35.43
2018-11-10T19:22:25.516Z,41.83
2018-11-10T19:24:54.232Z,43.73
2018-11-10T19:27:23.089Z,41.57
2018-11-10T19:29:51.725Z,35.77
2018-11-10T19:32:20.687Z,32.60
2018-11-10T19:34:49.323Z,35.70
2018-11-10T19:37:17.921Z,39.83
2018-11-10T19:39:46.759Z,40.17
2018-11-10T19:42:15.804Z,40.97
2018-11-10T19:44:44.539Z,38.53
2018-11-10T19:47:13.166Z,40.77
2018-11-10T19:49:42.142Z,36.70
2018-11-10T19:52:11.204Z,41.87
2018-11-10T19:54:39.835Z,48.73
2018-11-10T19:57:08.703Z,36.93
2018-11-10T19:59:37.239Z,36.03
2018-11-10T20:02:05.937Z,29.27
2018-11-10T20:04:34.564Z,31.73
2018-11-10T20:07:03.289Z,38.33
2018-11-10T20:09:32.107Z,35.80
2018-11-10T20:12:00.722Z,40.27
2018-11-10T20:14:29.407Z,44.43
2018-11-10T20:16:58.117Z,37.30
2018-11-10T20:19:26.609Z,35.70
2018-11-10T20:21:55.153Z,37.87
2018-11-10T20:24:23.636Z,40.40
2018-11-10T20:26:52.529Z,37.73
2018-11-10T20:29:21.304Z,35.47
2018-11-10T20:31:49.952Z,35.17
2018-11-10T20:34:18.705Z,39.97
2018-11-10T20:36:47.660Z,36.57
2018-11-10T20:39:16.681Z,32.78
2018-11-10T20:41:45.358Z,35.27
2018-11-10T20:44:14.146Z,41.90
2018-11-10T20:46:42.718Z,79.13
2018-11-10T20:49:11.573Z,41.90
2018-11-10T20:51:40.286Z,27.97
2018-11-10T20:54:09.213Z,30.20
2018-11-10T20:56:38.213Z,33.87
2018-11-10T20:59:06.812Z,32.77
2018-11-10T21:01:35.680Z,35.40
2018-11-10T21:04:04.422Z,42.33
2018-11-10T21:06:33.099Z,37.70
2018-11-10T21:09:01.790Z,37.43
2018-11-10T21:11:30.648Z,31.87
2018-11-10T21:13:59.473Z,26.70
2018-11-10T21:16:28.087Z,26.57
2018-11-10T21:18:56.997Z,30.17
2018-11-10T21:21:27.121Z,27.07
2018-11-10T21:23:56.023Z,22.80
2018-11-10T21:26:24.818Z,21.67
2018-11-10T21:28:53.841Z,19.20
2018-11-10T21:31:22.468Z,20.20
2018-11-10T21:33:51.584Z,18.70
2018-11-10T21:36:20.689Z,24.90
2018-11-10T21:38:49.655Z,25.93
2018-11-10T21:41:18.672Z,22.57
2018-11-10T21:43:47.786Z,25.43
2018-11-10T21:46:16.688Z,24.53
2018-11-10T21:48:45.542Z,26.17
2018-11-10T21:51:14.267Z,27.50
2018-11-10T21:53:42.935Z,24.57
2018-11-10T21:56:11.862Z,26.30
2018-11-10T21:58:40.886Z,29.67
2018-11-10T22:01:09.832Z,26.07
2018-11-10T22:03:38.863Z,31.40
2018-11-10T22:06:07.730Z,31.97
2018-11-10T22:08:36.645Z,32.17
2018-11-10T22:11:05.751Z,31.13
2018-11-10T22:13:35.049Z,37.27
2018-11-10T22:16:03.984Z,34.15
2018-11-10T22:18:34.370Z,34.03
2018-11-10T22:21:04.660Z,38.20
2018-11-10T22:23:34.004Z,38.80
2018-11-10T22:26:03.503Z,31.05
2018-11-10T22:28:33.635Z,31.27
2018-11-10T22:31:02.661Z,34.40
2018-11-10T22:33:37.458Z,35.43
2018-11-10T22:36:06.980Z,36.50
2018-11-10T22:38:37.889Z,30.37
2018-11-10T22:41:07.529Z,32.13
2018-11-10T22:43:37.152Z,35.07
2018-11-10T22:46:08.206Z,33.37
2018-11-10T22:48:38.092Z,32.80
2018-11-10T22:51:09.508Z,36.10
2018-11-10T22:53:38.726Z,36.95
2018-11-10T22:56:10.892Z,32.40
2018-11-10T22:58:42.040Z,29.73
2018-11-10T23:01:11.985Z,30.47
2018-11-10T23:03:41.324Z,29.80
2018-11-10T23:06:10.876Z,31.03
2018-11-10T23:08:40.166Z,27.83
2018-11-10T23:11:09.624Z,30.07
2018-11-10T23:13:38.933Z,30.00
2018-11-10T23:16:08.693Z,31.07
2018-11-10T23:18:38.097Z,30.05
2018-11-10T23:21:09.710Z,27.30
2018-11-10T23:23:40.423Z,25.13
2018-11-10T23:26:09.181Z,26.57
2018-11-10T23:28:38.326Z,23.85
2018-11-10T23:31:07.574Z,26.33
2018-11-10T23:33:36.900Z,28.47
2018-11-10T23:36:06.107Z,24.97
2018-11-10T23:38:35.148Z,25.53
2018-11-10T23:41:04.134Z,32.23
2018-11-10T23:43:34.289Z,27.50
2018-11-10T23:46:03.408Z,26.23
2018-11-10T23:48:31.955Z,26.00
2018-11-10T23:51:01.214Z,28.80
2018-11-10T23:53:30.240Z,26.97
2018-11-10T23:55:59.295Z,30.80
2018-11-10T23:58:28.220Z,32.07
